sensor_id;sensor_type;location;lat;lon;timestamp;P1;durP1;ratioP1;P2;durP2;ratioP2
20101;SDS011;10210;52.284;9.892;2024-02-26T00:01:43;7.00;;;2.90;;
20101;SDS011;10210;52.284;9.892;2024-02-26T00:04:09;7.33;;;2.83;;
20101;SDS011;10210;52.284;9.892;2024-02-26T00:06:36;9.33;;;2.90;;
20101;SDS011;10210;52.284;9.892;2024-02-26T00:09:02;6.97;;;2.83;;
20101;SDS011;10210;52.284;9.892;2024-02-26T00:11:30;7.97;;;2.73;;
20101;SDS011;10210;52.284;9.892;2024-02-26T00:13:56;7.13;;;2.80;;
20101;SDS011;10210;52.284;9.892;2024-02-26T00:16:22;7.47;;;2.83;;
20101;SDS011;10210;52.284;9.892;2024-02-26T00:18:48;8.00;;;3.03;;
20101;SDS011;10210;52.284;9.892;2024-02-26T00:21:14;6.80;;;2.87;;
20101;SDS011;10210;52.284;9.892;2024-02-26T00:23:40;7.73;;;2.93;;
20101;SDS011;10210;52.284;9.892;2024-02-26T00:26:05;8.03;;;2.97;;
20101;SDS011;10210;52.284;9.892;2024-02-26T00:28:32;7.77;;;3.00;;
20101;SDS011;10210;52.284;9.892;2024-02-26T00:30:58;9.13;;;3.30;;
20101;SDS011;10210;52.284;9.892;2024-02-26T00:33:24;7.63;;;2.97;;
20101;SDS011;10210;52.284;9.892;2024-02-26T00:35:50;8.93;;;3.20;;
20101;SDS011;10210;52.284;9.892;2024-02-26T00:38:15;9.13;;;3.47;;
20101;SDS011;10210;52.284;9.892;2024-02-26T00:40:41;8.37;;;3.03;;
20101;SDS011;10210;52.284;9.892;2024-02-26T00:43:07;10.07;;;3.50;;
20101;SDS011;10210;52.284;9.892;2024-02-26T00:45:32;9.10;;;3.40;;
20101;SDS011;10210;52.284;9.892;2024-02-26T00:47:58;8.97;;;3.30;;
20101;SDS011;10210;52.284;9.892;2024-02-26T00:50:29;8.17;;;3.27;;
20101;SDS011;10210;52.284;9.892;2024-02-26T00:52:55;9.40;;;3.10;;
20101;SDS011;10210;52.284;9.892;2024-02-26T00:55:21;7.83;;;3.10;;
20101;SDS011;10210;52.284;9.892;2024-02-26T00:57:46;10.07;;;3.57;;
20101;SDS011;10210;52.284;9.892;2024-02-26T01:00:12;9.10;;;3.43;;
20101;SDS011;10210;52.284;9.892;2024-02-26T01:02:39;9.57;;;3.37;;
20101;SDS011;10210;52.284;9.892;2024-02-26T01:05:06;10.80;;;3.50;;
20101;SDS011;10210;52.284;9.892;2024-02-26T01:07:36;8.43;;;3.30;;
20101;SDS011;10210;52.284;9.892;2024-02-26T01:10:02;10.33;;;3.30;;
20101;SDS011;10210;52.284;9.892;2024-02-26T01:12:28;11.30;;;3.70;;
20101;SDS011;10210;52.284;9.892;2024-02-26T01:14:54;8.37;;;3.20;;
20101;SDS011;10210;52.284;9.892;2024-02-26T01:17:20;9.47;;;3.40;;
20101;SDS011;10210;52.284;9.892;2024-02-26T01:19:46;11.23;;;3.50;;
20101;SDS011;10210;52.284;9.892;2024-02-26T01:22:11;8.30;;;3.10;;
20101;SDS011;10210;52.284;9.892;2024-02-26T01:24:37;10.00;;;3.57;;
20101;SDS011;10210;52.284;9.892;2024-02-26T01:27:03;8.77;;;3.50;;
20101;SDS011;10210;52.284;9.892;2024-02-26T01:29:29;8.97;;;3.30;;
20101;SDS011;10210;52.284;9.892;2024-02-26T01:31:54;9.70;;;3.30;;
20101;SDS011;10210;52.284;9.892;2024-02-26T01:34:20;9.93;;;3.17;;
20101;SDS011;10210;52.284;9.892;2024-02-26T01:36:46;9.17;;;3.30;;
20101;SDS011;10210;52.284;9.892;2024-02-26T01:39:12;7.17;;;3.00;;
20101;SDS011;10210;52.284;9.892;2024-02-26T01:41:38;8.83;;;3.00;;
20101;SDS011;10210;52.284;9.892;2024-02-26T01:44:05;8.40;;;3.20;;
20101;SDS011;10210;52.284;9.892;2024-02-26T01:46:31;9.57;;;3.40;;
20101;SDS011;10210;52.284;9.892;2024-02-26T01:49:02;10.10;;;3.43;;
20101;SDS011;10210;52.284;9.892;2024-02-26T01:51:28;9.53;;;3.30;;
20101;SDS011;10210;52.284;9.892;2024-02-26T01:53:56;8.40;;;3.20;;
20101;SDS011;10210;52.284;9.892;2024-02-26T01:56:24;9.83;;;3.37;;
20101;SDS011;10210;52.284;9.892;2024-02-26T01:58:55;8.63;;;3.20;;
20101;SDS011;10210;52.284;9.892;2024-02-26T02:01:22;9.23;;;3.63;;
20101;SDS011;10210;52.284;9.892;2024-02-26T02:03:55;10.17;;;3.77;;
20101;SDS011;10210;52.284;9.892;2024-02-26T02:06:23;10.00;;;3.80;;
20101;SDS011;10210;52.284;9.892;2024-02-26T02:08:49;11.07;;;3.70;;
20101;SDS011;10210;52.284;9.892;2024-02-26T02:11:14;8.70;;;3.43;;
20101;SDS011;10210;52.284;9.892;2024-02-26T02:13:43;10.77;;;3.60;;
20101;SDS011;10210;52.284;9.892;2024-02-26T02:16:09;7.60;;;3.00;;
20101;SDS011;10210;52.284;9.892;2024-02-26T02:18:34;8.93;;;3.37;;
20101;SDS011;10210;52.284;9.892;2024-02-26T02:21:00;9.30;;;3.37;;
20101;SDS011;10210;52.284;9.892;2024-02-26T02:23:26;12.40;;;3.67;;
20101;SDS011;10210;52.284;9.892;2024-02-26T02:25:52;9.17;;;3.50;;
20101;SDS011;10210;52.284;9.892;2024-02-26T02:28:20;8.43;;;3.20;;
20101;SDS011;10210;52.284;9.892;2024-02-26T02:30:46;8.87;;;3.33;;
20101;SDS011;10210;52.284;9.892;2024-02-26T02:33:13;10.63;;;3.63;;
20101;SDS011;10210;52.284;9.892;2024-02-26T02:35:41;7.77;;;3.20;;
20101;SDS011;10210;52.284;9.892;2024-02-26T02:38:06;10.47;;;3.83;;
20101;SDS011;10210;52.284;9.892;2024-02-26T02:40:32;9.03;;;3.13;;
20101;SDS011;10210;52.284;9.892;2024-02-26T02:42:58;9.93;;;3.47;;
20101;SDS011;10210;52.284;9.892;2024-02-26T02:45:25;8.73;;;3.33;;
20101;SDS011;10210;52.284;9.892;2024-02-26T02:47:50;8.63;;;3.20;;
20101;SDS011;10210;52.284;9.892;2024-02-26T02:50:16;8.30;;;3.20;;
20101;SDS011;10210;52.284;9.892;2024-02-26T02:52:45;9.33;;;3.43;;
20101;SDS011;10210;52.284;9.892;2024-02-26T02:55:11;7.43;;;2.97;;
20101;SDS011;10210;52.284;9.892;2024-02-26T02:57:37;9.53;;;3.40;;
20101;SDS011;10210;52.284;9.892;2024-02-26T03:00:08;7.47;;;2.83;;
20101;SDS011;10210;52.284;9.892;2024-02-26T03:02:35;10.30;;;3.50;;
20101;SDS011;10210;52.284;9.892;2024-02-26T03:05:01;8.93;;;3.40;;
20101;SDS011;10210;52.284;9.892;2024-02-26T03:07:28;9.97;;;3.30;;
20101;SDS011;10210;52.284;9.892;2024-02-26T03:09:54;8.60;;;3.30;;
20101;SDS011;10210;52.284;9.892;2024-02-26T03:12:19;7.53;;;2.90;;
20101;SDS011;10210;52.284;9.892;2024-02-26T03:14:45;8.40;;;3.03;;
20101;SDS011;10210;52.284;9.892;2024-02-26T03:17:11;9.63;;;3.17;;
20101;SDS011;10210;52.284;9.892;2024-02-26T03:19:37;8.23;;;3.17;;
20101;SDS011;10210;52.284;9.892;2024-02-26T03:22:02;7.47;;;2.97;;
20101;SDS011;10210;52.284;9.892;2024-02-26T03:24:29;8.33;;;3.00;;
20101;SDS011;10210;52.284;9.892;2024-02-26T03:26:54;8.17;;;2.83;;
20101;SDS011;10210;52.284;9.892;2024-02-26T03:29:20;7.83;;;2.83;;
20101;SDS011;10210;52.284;9.892;2024-02-26T03:31:45;6.87;;;2.73;;
20101;SDS011;10210;52.284;9.892;2024-02-26T03:34:11;8.10;;;2.80;;
20101;SDS011;10210;52.284;9.892;2024-02-26T03:36:38;8.17;;;3.10;;
20101;SDS011;10210;52.284;9.892;2024-02-26T03:39:04;9.40;;;2.93;;
20101;SDS011;10210;52.284;9.892;2024-02-26T03:41:32;6.97;;;2.60;;
20101;SDS011;10210;52.284;9.892;2024-02-26T03:43:59;7.57;;;3.10;;
20101;SDS011;10210;52.284;9.892;2024-02-26T03:46:24;9.70;;;3.27;;
20101;SDS011;10210;52.284;9.892;2024-02-26T03:48:50;9.23;;;3.27;;
20101;SDS011;10210;52.284;9.892;2024-02-26T03:51:16;8.60;;;3.33;;
20101;SDS011;10210;52.284;9.892;2024-02-26T03:53:41;7.93;;;2.93;;
20101;SDS011;10210;52.284;9.892;2024-02-26T03:56:07;6.97;;;2.80;;
20101;SDS011;10210;52.284;9.892;2024-02-26T03:58:35;8.23;;;3.40;;
20101;SDS011;10210;52.284;9.892;2024-02-26T04:01:01;8.83;;;3.13;;
20101;SDS011;10210;52.284;9.892;2024-02-26T04:03:27;8.83;;;3.10;;
20101;SDS011;10210;52.284;9.892;2024-02-26T04:05:52;9.07;;;3.40;;
20101;SDS011;10210;52.284;9.892;2024-02-26T04:08:18;9.63;;;3.20;;
20101;SDS011;10210;52.284;9.892;2024-02-26T04:10:44;7.60;;;3.03;;
20101;SDS011;10210;52.284;9.892;2024-02-26T04:13:09;7.57;;;3.10;;
20101;SDS011;10210;52.284;9.892;2024-02-26T04:15:35;8.60;;;3.07;;
20101;SDS011;10210;52.284;9.892;2024-02-26T04:18:01;10.47;;;3.30;;
20101;SDS011;10210;52.284;9.892;2024-02-26T04:20:27;8.83;;;3.17;;
20101;SDS011;10210;52.284;9.892;2024-02-26T04:22:53;7.03;;;2.70;;
20101;SDS011;10210;52.284;9.892;2024-02-26T04:25:18;8.80;;;3.20;;
20101;SDS011;10210;52.284;9.892;2024-02-26T04:27:44;7.20;;;2.80;;
20101;SDS011;10210;52.284;9.892;2024-02-26T04:30:10;7.50;;;2.70;;
20101;SDS011;10210;52.284;9.892;2024-02-26T04:32:36;9.17;;;3.10;;
20101;SDS011;10210;52.284;9.892;2024-02-26T04:35:02;7.67;;;2.80;;
20101;SDS011;10210;52.284;9.892;2024-02-26T04:37:28;7.43;;;2.73;;
20101;SDS011;10210;52.284;9.892;2024-02-26T04:39:57;7.97;;;2.70;;
20101;SDS011;10210;52.284;9.892;2024-02-26T04:42:24;7.07;;;2.90;;
20101;SDS011;10210;52.284;9.892;2024-02-26T04:44:49;5.53;;;2.20;;
20101;SDS011;10210;52.284;9.892;2024-02-26T04:47:15;6.53;;;2.43;;
20101;SDS011;10210;52.284;9.892;2024-02-26T04:49:40;6.50;;;2.50;;
20101;SDS011;10210;52.284;9.892;2024-02-26T04:52:06;7.50;;;2.70;;
20101;SDS011;10210;52.284;9.892;2024-02-26T04:54:32;6.47;;;2.50;;
20101;SDS011;10210;52.284;9.892;2024-02-26T04:56:57;6.63;;;2.50;;
20101;SDS011;10210;52.284;9.892;2024-02-26T04:59:23;6.83;;;2.53;;
20101;SDS011;10210;52.284;9.892;2024-02-26T05:01:49;5.80;;;2.27;;
20101;SDS011;10210;52.284;9.892;2024-02-26T05:04:16;7.33;;;2.80;;
20101;SDS011;10210;52.284;9.892;2024-02-26T05:06:44;5.80;;;2.50;;
20101;SDS011;10210;52.284;9.892;2024-02-26T05:09:09;7.00;;;2.63;;
20101;SDS011;10210;52.284;9.892;2024-02-26T05:11:35;7.47;;;2.87;;
20101;SDS011;10210;52.284;9.892;2024-02-26T05:14:01;8.67;;;2.70;;
20101;SDS011;10210;52.284;9.892;2024-02-26T05:16:27;8.27;;;2.83;;
20101;SDS011;10210;52.284;9.892;2024-02-26T05:18:55;8.03;;;2.80;;
20101;SDS011;10210;52.284;9.892;2024-02-26T05:21:20;9.33;;;3.00;;
20101;SDS011;10210;52.284;9.892;2024-02-26T05:23:46;6.80;;;2.77;;
20101;SDS011;10210;52.284;9.892;2024-02-26T05:26:12;7.43;;;2.67;;
20101;SDS011;10210;52.284;9.892;2024-02-26T05:28:44;6.73;;;2.80;;
20101;SDS011;10210;52.284;9.892;2024-02-26T05:31:12;8.13;;;2.80;;
20101;SDS011;10210;52.284;9.892;2024-02-26T05:33:38;7.57;;;2.60;;
20101;SDS011;10210;52.284;9.892;2024-02-26T05:36:04;7.07;;;2.67;;
20101;SDS011;10210;52.284;9.892;2024-02-26T05:38:30;8.37;;;2.77;;
20101;SDS011;10210;52.284;9.892;2024-02-26T05:40:57;7.63;;;2.83;;
20101;SDS011;10210;52.284;9.892;2024-02-26T05:43:25;5.40;;;2.40;;
20101;SDS011;10210;52.284;9.892;2024-02-26T05:45:52;6.57;;;2.67;;
20101;SDS011;10210;52.284;9.892;2024-02-26T05:48:18;7.07;;;2.73;;
20101;SDS011;10210;52.284;9.892;2024-02-26T05:50:45;7.13;;;2.73;;
20101;SDS011;10210;52.284;9.892;2024-02-26T05:53:11;7.50;;;2.70;;
20101;SDS011;10210;52.284;9.892;2024-02-26T05:55:37;6.43;;;2.70;;
20101;SDS011;10210;52.284;9.892;2024-02-26T05:58:03;7.20;;;2.60;;
20101;SDS011;10210;52.284;9.892;2024-02-26T06:00:29;7.47;;;2.60;;
20101;SDS011;10210;52.284;9.892;2024-02-26T06:02:54;8.20;;;3.00;;
20101;SDS011;10210;52.284;9.892;2024-02-26T06:05:20;6.57;;;2.67;;
20101;SDS011;10210;52.284;9.892;2024-02-26T06:07:46;6.97;;;2.47;;
20101;SDS011;10210;52.284;9.892;2024-02-26T06:10:12;9.00;;;3.17;;
20101;SDS011;10210;52.284;9.892;2024-02-26T06:12:38;9.50;;;3.27;;
20101;SDS011;10210;52.284;9.892;2024-02-26T06:15:05;7.30;;;2.90;;
20101;SDS011;10210;52.284;9.892;2024-02-26T06:17:32;7.00;;;3.03;;
20101;SDS011;10210;52.284;9.892;2024-02-26T06:19:58;7.80;;;2.80;;
20101;SDS011;10210;52.284;9.892;2024-02-26T06:22:24;7.70;;;3.00;;
20101;SDS011;10210;52.284;9.892;2024-02-26T06:24:50;8.43;;;3.07;;
20101;SDS011;10210;52.284;9.892;2024-02-26T06:27:16;7.53;;;2.90;;
20101;SDS011;10210;52.284;9.892;2024-02-26T06:29:46;10.33;;;4.03;;
20101;SDS011;10210;52.284;9.892;2024-02-26T06:32:13;8.17;;;3.23;;
20101;SDS011;10210;52.284;9.892;2024-02-26T06:34:39;8.33;;;3.20;;
20101;SDS011;10210;52.284;9.892;2024-02-26T06:37:06;8.23;;;3.00;;
20101;SDS011;10210;52.284;9.892;2024-02-26T06:39:33;7.87;;;3.10;;
20101;SDS011;10210;52.284;9.892;2024-02-26T06:41:59;7.70;;;2.70;;
20101;SDS011;10210;52.284;9.892;2024-02-26T06:44:28;7.73;;;3.00;;
20101;SDS011;10210;52.284;9.892;2024-02-26T06:47:00;7.80;;;2.73;;
20101;SDS011;10210;52.284;9.892;2024-02-26T06:49:26;8.27;;;2.97;;
20101;SDS011;10210;52.284;9.892;2024-02-26T06:51:53;7.67;;;2.87;;
20101;SDS011;10210;52.284;9.892;2024-02-26T06:54:19;7.80;;;3.07;;
20101;SDS011;10210;52.284;9.892;2024-02-26T06:56:44;9.27;;;3.37;;
20101;SDS011;10210;52.284;9.892;2024-02-26T06:59:10;10.53;;;3.77;;
20101;SDS011;10210;52.284;9.892;2024-02-26T07:01:36;9.67;;;3.57;;
20101;SDS011;10210;52.284;9.892;2024-02-26T07:04:01;7.43;;;3.17;;
20101;SDS011;10210;52.284;9.892;2024-02-26T07:06:27;9.40;;;3.57;;
20101;SDS011;10210;52.284;9.892;2024-02-26T07:08:53;10.40;;;3.70;;
20101;SDS011;10210;52.284;9.892;2024-02-26T07:11:19;7.50;;;3.10;;
20101;SDS011;10210;52.284;9.892;2024-02-26T07:13:45;8.50;;;3.33;;
20101;SDS011;10210;52.284;9.892;2024-02-26T07:16:11;8.57;;;3.13;;
20101;SDS011;10210;52.284;9.892;2024-02-26T07:18:38;8.70;;;3.40;;
20101;SDS011;10210;52.284;9.892;2024-02-26T07:21:04;8.30;;;3.40;;
20101;SDS011;10210;52.284;9.892;2024-02-26T07:23:30;8.90;;;3.30;;
20101;SDS011;10210;52.284;9.892;2024-02-26T07:25:57;9.90;;;3.37;;
20101;SDS011;10210;52.284;9.892;2024-02-26T07:28:23;8.97;;;3.33;;
20101;SDS011;10210;52.284;9.892;2024-02-26T07:30:49;8.57;;;3.37;;
20101;SDS011;10210;52.284;9.892;2024-02-26T07:33:15;8.77;;;3.10;;
20101;SDS011;10210;52.284;9.892;2024-02-26T07:35:41;8.23;;;3.50;;
20101;SDS011;10210;52.284;9.892;2024-02-26T07:38:07;9.23;;;3.40;;
20101;SDS011;10210;52.284;9.892;2024-02-26T07:40:32;10.10;;;3.80;;
20101;SDS011;10210;52.284;9.892;2024-02-26T07:42:58;9.73;;;4.00;;
20101;SDS011;10210;52.284;9.892;2024-02-26T07:45:24;9.47;;;3.70;;
20101;SDS011;10210;52.284;9.892;2024-02-26T07:47:49;9.00;;;3.87;;
20101;SDS011;10210;52.284;9.892;2024-02-26T07:50:16;8.80;;;3.60;;
20101;SDS011;10210;52.284;9.892;2024-02-26T07:52:44;10.23;;;3.77;;
20101;SDS011;10210;52.284;9.892;2024-02-26T07:55:10;9.80;;;3.90;;
20101;SDS011;10210;52.284;9.892;2024-02-26T07:57:36;9.93;;;3.73;;
20101;SDS011;10210;52.284;9.892;2024-02-26T08:00:02;9.20;;;3.50;;
20101;SDS011;10210;52.284;9.892;2024-02-26T08:02:29;9.63;;;3.77;;
20101;SDS011;10210;52.284;9.892;2024-02-26T08:04:55;9.17;;;3.60;;
20101;SDS011;10210;52.284;9.892;2024-02-26T08:07:21;10.63;;;4.03;;
20101;SDS011;10210;52.284;9.892;2024-02-26T08:09:47;10.23;;;4.23;;
20101;SDS011;10210;52.284;9.892;2024-02-26T08:12:12;10.93;;;4.10;;
20101;SDS011;10210;52.284;9.892;2024-02-26T08:14:39;11.37;;;4.87;;
20101;SDS011;10210;52.284;9.892;2024-02-26T08:17:06;10.27;;;3.87;;
20101;SDS011;10210;52.284;9.892;2024-02-26T08:19:32;10.33;;;4.00;;
20101;SDS011;10210;52.284;9.892;2024-02-26T08:22:00;11.50;;;4.70;;
20101;SDS011;10210;52.284;9.892;2024-02-26T08:24:26;9.73;;;4.37;;
20101;SDS011;10210;52.284;9.892;2024-02-26T08:26:53;9.67;;;4.30;;
20101;SDS011;10210;52.284;9.892;2024-02-26T08:29:19;11.50;;;4.60;;
20101;SDS011;10210;52.284;9.892;2024-02-26T08:31:45;10.73;;;4.37;;
20101;SDS011;10210;52.284;9.892;2024-02-26T08:34:10;10.57;;;4.37;;
20101;SDS011;10210;52.284;9.892;2024-02-26T08:36:36;11.57;;;4.60;;
20101;SDS011;10210;52.284;9.892;2024-02-26T08:39:02;12.10;;;4.50;;
20101;SDS011;10210;52.284;9.892;2024-02-26T08:41:28;10.10;;;4.13;;
20101;SDS011;10210;52.284;9.892;2024-02-26T08:43:54;12.00;;;4.57;;
20101;SDS011;10210;52.284;9.892;2024-02-26T08:46:20;10.10;;;4.30;;
20101;SDS011;10210;52.284;9.892;2024-02-26T08:48:45;11.23;;;4.57;;
20101;SDS011;10210;52.284;9.892;2024-02-26T08:51:11;10.60;;;4.33;;
20101;SDS011;10210;52.284;9.892;2024-02-26T08:53:38;11.53;;;4.60;;
20101;SDS011;10210;52.284;9.892;2024-02-26T08:56:04;10.40;;;4.17;;
20101;SDS011;10210;52.284;9.892;2024-02-26T08:58:30;11.40;;;4.37;;
20101;SDS011;10210;52.284;9.892;2024-02-26T09:00:56;10.70;;;4.50;;
20101;SDS011;10210;52.284;9.892;2024-02-26T09:03:22;11.27;;;4.47;;
20101;SDS011;10210;52.284;9.892;2024-02-26T09:05:48;11.90;;;4.83;;
20101;SDS011;10210;52.284;9.892;2024-02-26T09:08:14;10.07;;;4.30;;
20101;SDS011;10210;52.284;9.892;2024-02-26T09:10:40;11.90;;;4.27;;
20101;SDS011;10210;52.284;9.892;2024-02-26T09:13:06;10.40;;;4.20;;
20101;SDS011;10210;52.284;9.892;2024-02-26T09:15:31;10.87;;;4.30;;
20101;SDS011;10210;52.284;9.892;2024-02-26T09:17:57;11.77;;;4.50;;
20101;SDS011;10210;52.284;9.892;2024-02-26T09:20:23;9.13;;;3.60;;
20101;SDS011;10210;52.284;9.892;2024-02-26T09:22:49;9.10;;;3.50;;
20101;SDS011;10210;52.284;9.892;2024-02-26T09:25:15;9.40;;;3.50;;
20101;SDS011;10210;52.284;9.892;2024-02-26T09:27:43;9.23;;;3.37;;
20101;SDS011;10210;52.284;9.892;2024-02-26T09:30:10;7.03;;;3.10;;
20101;SDS011;10210;52.284;9.892;2024-02-26T09:32:37;8.07;;;3.20;;
20101;SDS011;10210;52.284;9.892;2024-02-26T09:35:05;8.10;;;3.30;;
20101;SDS011;10210;52.284;9.892;2024-02-26T09:37:31;9.07;;;3.50;;
20101;SDS011;10210;52.284;9.892;2024-02-26T09:39:58;9.37;;;3.30;;
20101;SDS011;10210;52.284;9.892;2024-02-26T09:42:27;7.93;;;3.23;;
20101;SDS011;10210;52.284;9.892;2024-02-26T09:44:58;9.10;;;3.50;;
20101;SDS011;10210;52.284;9.892;2024-02-26T09:47:31;8.47;;;3.30;;
20101;SDS011;10210;52.284;9.892;2024-02-26T09:49:58;8.37;;;3.37;;
20101;SDS011;10210;52.284;9.892;2024-02-26T09:52:27;7.47;;;3.10;;
20101;SDS011;10210;52.284;9.892;2024-02-26T09:54:56;8.10;;;3.30;;
20101;SDS011;10210;52.284;9.892;2024-02-26T09:57:22;7.70;;;3.20;;
20101;SDS011;10210;52.284;9.892;2024-02-26T09:59:49;7.30;;;2.97;;
20101;SDS011;10210;52.284;9.892;2024-02-26T10:02:19;7.77;;;3.20;;
20101;SDS011;10210;52.284;9.892;2024-02-26T10:04:46;7.20;;;3.00;;
20101;SDS011;10210;52.284;9.892;2024-02-26T10:07:16;8.57;;;2.90;;
20101;SDS011;10210;52.284;9.892;2024-02-26T10:09:43;7.67;;;3.03;;
20101;SDS011;10210;52.284;9.892;2024-02-26T10:12:10;7.13;;;2.77;;
20101;SDS011;10210;52.284;9.892;2024-02-26T10:14:36;7.17;;;2.70;;
20101;SDS011;10210;52.284;9.892;2024-02-26T10:17:02;5.80;;;2.53;;
20101;SDS011;10210;52.284;9.892;2024-02-26T10:19:33;7.23;;;2.80;;
20101;SDS011;10210;52.284;9.892;2024-02-26T10:22:00;6.40;;;2.70;;
20101;SDS011;10210;52.284;9.892;2024-02-26T10:24:26;8.13;;;2.83;;
20101;SDS011;10210;52.284;9.892;2024-02-26T10:26:54;6.40;;;2.80;;
20101;SDS011;10210;52.284;9.892;2024-02-26T10:29:21;8.20;;;2.63;;
20101;SDS011;10210;52.284;9.892;2024-02-26T10:31:50;6.33;;;2.60;;
20101;SDS011;10210;52.284;9.892;2024-02-26T10:34:17;6.17;;;2.53;;
20101;SDS011;10210;52.284;9.892;2024-02-26T10:36:44;6.77;;;2.77;;
20101;SDS011;10210;52.284;9.892;2024-02-26T10:39:11;7.30;;;2.73;;
20101;SDS011;10210;52.284;9.892;2024-02-26T10:41:38;7.97;;;2.57;;
20101;SDS011;10210;52.284;9.892;2024-02-26T10:44:08;6.37;;;2.50;;
20101;SDS011;10210;52.284;9.892;2024-02-26T10:46:40;7.07;;;2.80;;
20101;SDS011;10210;52.284;9.892;2024-02-26T10:49:12;6.03;;;2.40;;
20101;SDS011;10210;52.284;9.892;2024-02-26T10:51:45;5.70;;;2.30;;
20101;SDS011;10210;52.284;9.892;2024-02-26T10:54:19;7.80;;;2.70;;
20101;SDS011;10210;52.284;9.892;2024-02-26T10:56:46;6.37;;;2.50;;
20101;SDS011;10210;52.284;9.892;2024-02-26T10:59:14;8.17;;;2.77;;
20101;SDS011;10210;52.284;9.892;2024-02-26T11:01:47;7.27;;;2.90;;
20101;SDS011;10210;52.284;9.892;2024-02-26T11:04:14;6.10;;;2.53;;
20101;SDS011;10210;52.284;9.892;2024-02-26T11:06:42;7.47;;;2.87;;
20101;SDS011;10210;52.284;9.892;2024-02-26T11:09:11;7.83;;;3.00;;
20101;SDS011;10210;52.284;9.892;2024-02-26T11:11:39;6.80;;;2.67;;
20101;SDS011;10210;52.284;9.892;2024-02-26T11:14:06;9.03;;;2.90;;
20101;SDS011;10210;52.284;9.892;2024-02-26T11:16:35;8.73;;;3.20;;
20101;SDS011;10210;52.284;9.892;2024-02-26T11:19:03;8.97;;;3.00;;
20101;SDS011;10210;52.284;9.892;2024-02-26T11:21:35;8.77;;;3.20;;
20101;SDS011;10210;52.284;9.892;2024-02-26T11:24:14;9.57;;;3.60;;
20101;SDS011;10210;52.284;9.892;2024-02-26T11:27:04;7.60;;;3.00;;
20101;SDS011;10210;52.284;9.892;2024-02-26T11:29:35;9.13;;;3.20;;
20101;SDS011;10210;52.284;9.892;2024-02-26T11:32:08;9.13;;;3.23;;
20101;SDS011;10210;52.284;9.892;2024-02-26T11:34:35;7.50;;;2.70;;
20101;SDS011;10210;52.284;9.892;2024-02-26T11:37:08;8.13;;;3.10;;
20101;SDS011;10210;52.284;9.892;2024-02-26T11:39:40;7.13;;;2.87;;
20101;SDS011;10210;52.284;9.892;2024-02-26T11:42:07;9.93;;;3.50;;
20101;SDS011;10210;52.284;9.892;2024-02-26T11:44:34;8.37;;;3.30;;
20101;SDS011;10210;52.284;9.892;2024-02-26T11:49:59;7.90;;;3.10;;
20101;SDS011;10210;52.284;9.892;2024-02-26T11:53:21;8.87;;;2.83;;
20101;SDS011;10210;52.284;9.892;2024-02-26T11:56:19;7.43;;;2.87;;
20101;SDS011;10210;52.284;9.892;2024-02-26T11:58:42;8.47;;;3.10;;
20101;SDS011;10210;52.284;9.892;2024-02-26T12:04:04;10.10;;;4.07;;
20101;SDS011;10210;52.284;9.892;2024-02-26T12:06:52;23.30;;;13.87;;
20101;SDS011;10210;52.284;9.892;2024-02-26T12:09:40;17.47;;;10.00;;
20101;SDS011;10210;52.284;9.892;2024-02-26T12:12:07;16.87;;;7.03;;
20101;SDS011;10210;52.284;9.892;2024-02-26T12:14:39;12.87;;;4.90;;
20101;SDS011;10210;52.284;9.892;2024-02-26T12:17:20;12.60;;;4.60;;
20101;SDS011;10210;52.284;9.892;2024-02-26T12:19:49;10.37;;;3.60;;
20101;SDS011;10210;52.284;9.892;2024-02-26T12:22:16;10.63;;;3.70;;
20101;SDS011;10210;52.284;9.892;2024-02-26T12:24:44;10.73;;;3.97;;
20101;SDS011;10210;52.284;9.892;2024-02-26T12:27:10;9.33;;;3.70;;
20101;SDS011;10210;52.284;9.892;2024-02-26T12:29:36;11.60;;;4.13;;
20101;SDS011;10210;52.284;9.892;2024-02-26T12:32:02;10.30;;;3.67;;
20101;SDS011;10210;52.284;9.892;2024-02-26T12:34:30;10.97;;;3.60;;
20101;SDS011;10210;52.284;9.892;2024-02-26T12:36:56;10.63;;;3.63;;
20101;SDS011;10210;52.284;9.892;2024-02-26T12:39:22;10.50;;;4.00;;
20101;SDS011;10210;52.284;9.892;2024-02-26T12:41:49;11.60;;;4.20;;
20101;SDS011;10210;52.284;9.892;2024-02-26T12:44:15;9.87;;;3.57;;
20101;SDS011;10210;52.284;9.892;2024-02-26T12:46:43;9.00;;;3.60;;
20101;SDS011;10210;52.284;9.892;2024-02-26T12:49:09;10.97;;;4.03;;
20101;SDS011;10210;52.284;9.892;2024-02-26T12:51:43;11.20;;;4.13;;
20101;SDS011;10210;52.284;9.892;2024-02-26T12:54:10;10.23;;;3.80;;
20101;SDS011;10210;52.284;9.892;2024-02-26T12:56:37;9.00;;;3.43;;
20101;SDS011;10210;52.284;9.892;2024-02-26T12:59:02;9.10;;;3.23;;
20101;SDS011;10210;52.284;9.892;2024-02-26T13:01:29;10.70;;;3.90;;
20101;SDS011;10210;52.284;9.892;2024-02-26T13:03:55;8.97;;;3.43;;
20101;SDS011;10210;52.284;9.892;2024-02-26T13:06:22;9.17;;;3.50;;
20101;SDS011;10210;52.284;9.892;2024-02-26T13:08:48;9.13;;;3.50;;
20101;SDS011;10210;52.284;9.892;2024-02-26T13:11:14;9.87;;;3.40;;
20101;SDS011;10210;52.284;9.892;2024-02-26T13:13:40;8.97;;;3.70;;
20101;SDS011;10210;52.284;9.892;2024-02-26T13:16:10;8.60;;;3.50;;
20101;SDS011;10210;52.284;9.892;2024-02-26T13:18:40;9.53;;;3.73;;
20101;SDS011;10210;52.284;9.892;2024-02-26T13:21:10;8.90;;;3.53;;
20101;SDS011;10210;52.284;9.892;2024-02-26T13:23:38;8.63;;;3.30;;
20101;SDS011;10210;52.284;9.892;2024-02-26T13:26:05;10.43;;;3.60;;
20101;SDS011;10210;52.284;9.892;2024-02-26T13:28:31;7.93;;;3.10;;
20101;SDS011;10210;52.284;9.892;2024-02-26T13:30:57;10.33;;;3.37;;
20101;SDS011;10210;52.284;9.892;2024-02-26T13:33:26;8.53;;;3.13;;
20101;SDS011;10210;52.284;9.892;2024-02-26T13:35:54;6.60;;;2.90;;
20101;SDS011;10210;52.284;9.892;2024-02-26T13:38:22;8.77;;;3.23;;
20101;SDS011;10210;52.284;9.892;2024-02-26T13:40:49;10.20;;;3.43;;
20101;SDS011;10210;52.284;9.892;2024-02-26T13:43:16;7.77;;;3.00;;
20101;SDS011;10210;52.284;9.892;2024-02-26T13:45:45;8.63;;;3.40;;
20101;SDS011;10210;52.284;9.892;2024-02-26T13:48:12;9.60;;;3.47;;
20101;SDS011;10210;52.284;9.892;2024-02-26T13:50:39;7.93;;;3.23;;
20101;SDS011;10210;52.284;9.892;2024-02-26T13:53:08;8.93;;;3.40;;
20101;SDS011;10210;52.284;9.892;2024-02-26T13:55:34;8.77;;;3.17;;
20101;SDS011;10210;52.284;9.892;2024-02-26T13:58:00;7.40;;;3.20;;
20101;SDS011;10210;52.284;9.892;2024-02-26T14:00:27;8.50;;;3.33;;
20101;SDS011;10210;52.284;9.892;2024-02-26T14:02:54;10.20;;;3.47;;
20101;SDS011;10210;52.284;9.892;2024-02-26T14:05:20;9.43;;;3.43;;
20101;SDS011;10210;52.284;9.892;2024-02-26T14:07:45;8.10;;;3.07;;
20101;SDS011;10210;52.284;9.892;2024-02-26T14:10:11;8.27;;;3.20;;
20101;SDS011;10210;52.284;9.892;2024-02-26T14:12:38;7.43;;;3.17;;
20101;SDS011;10210;52.284;9.892;2024-02-26T14:15:04;8.10;;;3.30;;
20101;SDS011;10210;52.284;9.892;2024-02-26T14:17:32;8.93;;;3.40;;
20101;SDS011;10210;52.284;9.892;2024-02-26T14:19:58;8.87;;;3.57;;
20101;SDS011;10210;52.284;9.892;2024-02-26T14:22:24;10.70;;;3.93;;
20101;SDS011;10210;52.284;9.892;2024-02-26T14:24:53;8.67;;;3.37;;
20101;SDS011;10210;52.284;9.892;2024-02-26T14:27:18;8.50;;;3.70;;
20101;SDS011;10210;52.284;9.892;2024-02-26T14:29:47;9.73;;;3.10;;
20101;SDS011;10210;52.284;9.892;2024-02-26T14:32:13;8.43;;;3.20;;
20101;SDS011;10210;52.284;9.892;2024-02-26T14:34:39;9.10;;;3.50;;
20101;SDS011;10210;52.284;9.892;2024-02-26T14:37:05;8.60;;;3.37;;
20101;SDS011;10210;52.284;9.892;2024-02-26T14:39:32;9.83;;;3.60;;
20101;SDS011;10210;52.284;9.892;2024-02-26T14:41:58;8.67;;;3.13;;
20101;SDS011;10210;52.284;9.892;2024-02-26T14:44:25;8.63;;;3.40;;
20101;SDS011;10210;52.284;9.892;2024-02-26T14:46:51;6.73;;;3.00;;
20101;SDS011;10210;52.284;9.892;2024-02-26T14:49:18;8.93;;;3.33;;
20101;SDS011;10210;52.284;9.892;2024-02-26T14:51:44;11.40;;;3.53;;